Hartford, Alabama
Current Conditions -  °F | °C
As of 7:58 AM on Thursday 23 Oct 2014 (Local Time) from KOZR Reporting Station
Clear Clear  
Wind Chill: 48°   Ceiling: Unl
Heat Index: 50°   Visibility: 10mi
Dew Point: 45°   Wind: 5mph
Humidity: 83%   Direction: 20°NNE
Pressure: 30.12"   Gusts: NA
Location:  31.1°N, 85.7°W
Report Text: KOZR 231258Z AUTO 02004KT 10SM CLR 10/07 A3012 RMK AO2 SLP202 T00980071
Loading
Personal Weather Stations






























Interactive Weather Map
Tropical Storm Tracking
New forecast layout! Learn more

10-Day Weather Forecast

Advertisements
Track Severe Weather on mobile